createdAt,value
2018-12-24T00:00:37.701Z,12.67
2018-12-24T00:01:13.679Z,12.67
2018-12-24T00:01:49.933Z,12.57
2018-12-24T00:02:25.871Z,12.57
2018-12-24T00:03:02.001Z,12.58
2018-12-24T00:03:38.217Z,12.52
2018-12-24T00:04:14.082Z,12.46
2018-12-24T00:04:50.258Z,12.45
2018-12-24T00:05:26.225Z,12.45
2018-12-24T00:06:02.092Z,12.48
2018-12-24T00:06:37.987Z,12.41
2018-12-24T00:07:13.850Z,12.31
2018-12-24T00:07:49.869Z,12.31
2018-12-24T00:08:25.738Z,12.20
2018-12-24T00:09:01.596Z,12.10
2018-12-24T00:09:37.443Z,12.07
2018-12-24T00:10:13.298Z,11.94
2018-12-24T00:10:49.285Z,11.89
2018-12-24T00:11:25.230Z,11.80
2018-12-24T00:12:07.022Z,11.80
2018-12-24T00:12:38.914Z,11.73
2018-12-24T00:13:14.771Z,11.72
2018-12-24T00:13:50.944Z,11.68
2018-12-24T00:14:26.849Z,11.63
2018-12-24T00:15:02.701Z,11.58
2018-12-24T00:15:38.912Z,11.50
2018-12-24T00:16:14.752Z,11.50
2018-12-24T00:16:51.306Z,11.47
2018-12-24T00:17:27.533Z,11.42
2018-12-24T00:18:03.650Z,11.36
2018-12-24T00:18:39.759Z,11.33
2018-12-24T00:19:15.611Z,11.26
2018-12-24T00:19:51.843Z,11.25
2018-12-24T00:20:27.707Z,11.21
2018-12-24T00:21:03.831Z,11.18
2018-12-24T00:21:39.694Z,11.10
2018-12-24T00:22:15.656Z,11.14
2018-12-24T00:22:51.732Z,11.12
2018-12-24T00:23:27.679Z,11.10
2018-12-24T00:24:03.834Z,11.06
2018-12-24T00:24:39.713Z,11.05
2018-12-24T00:25:15.542Z,11.02
2018-12-24T00:25:51.720Z,11.00
2018-12-24T00:26:28.381Z,10.97
2018-12-24T00:27:04.499Z,10.95
2018-12-24T00:27:40.626Z,10.93
2018-12-24T00:28:16.481Z,10.90
2018-12-24T00:28:52.487Z,10.87
2018-12-24T00:29:28.349Z,10.83
2018-12-24T00:30:04.190Z,10.78
2018-12-24T00:30:40.283Z,10.77
2018-12-24T00:31:16.164Z,10.76
2018-12-24T00:31:52.095Z,10.76
2018-12-24T00:32:27.974Z,10.71
2018-12-24T00:33:03.834Z,10.67
2018-12-24T00:33:39.682Z,10.67
2018-12-24T00:34:15.626Z,10.68
2018-12-24T00:34:51.781Z,10.65
2018-12-24T00:35:27.605Z,10.63
2018-12-24T00:36:04.051Z,10.59
2018-12-24T00:36:39.902Z,10.56
2018-12-24T00:37:15.742Z,10.54
2018-12-24T00:37:51.985Z,10.54
2018-12-24T00:38:27.920Z,10.49
2018-12-24T00:39:04.697Z,10.38
2018-12-24T00:39:40.638Z,10.38
2018-12-24T00:40:16.829Z,10.37
2018-12-24T00:40:52.751Z,10.32
2018-12-24T00:41:28.671Z,10.25
2018-12-24T00:42:04.522Z,10.14
2018-12-24T00:42:40.978Z,10.05
2018-12-24T00:43:16.819Z,9.87
2018-12-24T00:43:53.233Z,9.59
2018-12-24T00:44:29.059Z,9.59
2018-12-24T00:45:04.900Z,9.55
2018-12-24T00:45:40.841Z,9.47
2018-12-24T00:46:16.737Z,9.35
2018-12-24T00:46:53.263Z,9.27
2018-12-24T00:47:29.119Z,9.16
2018-12-24T00:48:05.027Z,9.10
2018-12-24T00:48:40.848Z,9.10
2018-12-24T00:49:17.015Z,9.10
2018-12-24T00:49:53.037Z,9.10
2018-12-24T00:50:28.904Z,9.10
2018-12-24T00:51:05.184Z,9.10
2018-12-24T00:51:41.283Z,9.06
2018-12-24T00:52:17.120Z,8.97
2018-12-24T00:52:53.115Z,8.96
2018-12-24T00:53:28.970Z,8.94
2018-12-24T00:54:04.913Z,8.96
2018-12-24T00:54:40.785Z,8.94
2018-12-24T00:55:18.010Z,8.96
2018-12-24T00:55:54.063Z,8.91
2018-12-24T00:56:29.912Z,8.96
2018-12-24T00:57:06.013Z,8.84
2018-12-24T00:57:42.148Z,8.79
2018-12-24T00:58:18.127Z,8.73
2018-12-24T00:58:54.189Z,8.73
2018-12-24T00:59:30.066Z,8.68
2018-12-24T01:00:06.228Z,8.67
2018-12-24T01:00:42.412Z,8.63
2018-12-24T01:01:18.258Z,8.76
2018-12-24T01:01:54.270Z,8.76
2018-12-24T01:02:30.218Z,8.71
2018-12-24T01:03:06.089Z,8.65
2018-12-24T01:03:42.189Z,8.64
2018-12-24T01:04:18.197Z,8.60
2018-12-24T01:04:54.177Z,8.53
2018-12-24T01:05:30.015Z,8.55
2018-12-24T01:06:05.849Z,8.56
2018-12-24T01:06:41.715Z,8.56
2018-12-24T01:07:17.726Z,8.58
2018-12-24T01:07:54.065Z,8.53
2018-12-24T01:08:30.631Z,8.51
2018-12-24T01:09:07.406Z,8.51
2018-12-24T01:09:43.255Z,8.45
2018-12-24T01:10:19.189Z,8.45
2018-12-24T01:10:55.265Z,8.42
2018-12-24T01:11:31.080Z,8.42
2018-12-24T01:12:06.937Z,8.45
2018-12-24T01:12:43.013Z,8.39
2018-12-24T01:13:19.599Z,8.39
2018-12-24T01:13:55.887Z,8.33
2018-12-24T01:14:31.986Z,8.37
2018-12-24T01:15:07.821Z,8.37
2018-12-24T01:15:43.995Z,8.38
2018-12-24T01:16:20.101Z,8.39
2018-12-24T01:16:56.178Z,8.33
2018-12-24T01:17:32.031Z,8.33
2018-12-24T01:18:08.252Z,8.36
2018-12-24T01:18:44.097Z,8.35
2018-12-24T01:19:20.325Z,8.27
2018-12-24T01:19:56.911Z,8.27
2018-12-24T01:20:33.875Z,8.35
2018-12-24T01:21:09.779Z,8.35
2018-12-24T01:21:45.714Z,8.36
2018-12-24T01:22:21.615Z,8.44
2018-12-24T01:22:57.586Z,8.39
2018-12-24T01:23:33.558Z,8.39
2018-12-24T01:24:09.401Z,8.40
2018-12-24T01:24:45.233Z,8.41
2018-12-24T01:25:21.374Z,8.39
2018-12-24T01:25:57.228Z,8.39
2018-12-24T01:26:33.078Z,8.39
2018-12-24T01:27:09.033Z,8.40
2018-12-24T01:27:44.969Z,8.40
2018-12-24T01:28:21.268Z,8.47
2018-12-24T01:28:57.164Z,8.47
2018-12-24T01:29:33.006Z,8.47
2018-12-24T01:30:09.109Z,8.39
2018-12-24T01:30:44.945Z,8.39
2018-12-24T01:31:20.912Z,8.37
2018-12-24T01:31:56.869Z,8.37
2018-12-24T01:32:32.979Z,8.34
2018-12-24T01:33:08.807Z,8.30
2018-12-24T01:33:44.931Z,8.26
2018-12-24T01:34:20.861Z,8.26
2018-12-24T01:34:57.127Z,8.23
2018-12-24T01:35:32.983Z,8.26
2018-12-24T01:36:08.834Z,8.24
2018-12-24T01:36:44.673Z,8.24
2018-12-24T01:37:21.129Z,8.26
2018-12-24T01:37:57.111Z,8.25
2018-12-24T01:38:32.988Z,8.22
2018-12-24T01:39:09.094Z,8.24
2018-12-24T01:39:44.957Z,8.22
2018-12-24T01:40:20.849Z,8.22
2018-12-24T01:40:56.948Z,8.20
2018-12-24T01:41:33.033Z,8.27
2018-12-24T01:42:08.996Z,8.22
2018-12-24T01:42:45.100Z,8.21
2018-12-24T01:43:21.062Z,8.20
2018-12-24T01:43:57.010Z,8.18
2018-12-24T01:44:33.099Z,8.18
2018-12-24T01:45:08.961Z,8.24
2018-12-24T01:45:44.785Z,8.20
2018-12-24T01:46:20.702Z,8.21
2018-12-24T01:46:56.707Z,8.21
2018-12-24T01:47:32.667Z,8.29
2018-12-24T01:48:08.650Z,8.29
2018-12-24T01:48:45.088Z,8.20
2018-12-24T01:49:21.131Z,8.18
2018-12-24T01:49:57.688Z,8.17
2018-12-24T01:50:33.656Z,8.19
2018-12-24T01:51:09.531Z,8.19
2018-12-24T01:51:46.021Z,8.15
2018-12-24T01:52:22.373Z,8.17
2018-12-24T01:52:58.388Z,8.16
2018-12-24T01:53:34.234Z,8.13
2018-12-24T01:54:10.235Z,8.09
2018-12-24T01:54:46.127Z,8.10
2018-12-24T01:55:21.993Z,8.10
2018-12-24T01:55:57.910Z,8.11
2018-12-24T01:56:34.084Z,8.13
2018-12-24T01:57:09.931Z,8.11
2018-12-24T01:57:45.790Z,8.14
2018-12-24T01:58:21.668Z,8.11
2018-12-24T01:58:57.647Z,8.11
2018-12-24T01:59:33.516Z,8.26
2018-12-24T02:00:09.720Z,8.17
2018-12-24T02:00:45.888Z,8.08
2018-12-24T02:01:21.801Z,8.08
2018-12-24T02:01:57.993Z,8.10
2018-12-24T02:02:33.830Z,8.07
2018-12-24T02:03:09.707Z,8.07
2018-12-24T02:03:45.561Z,8.08
2018-12-24T02:04:21.465Z,8.10
2018-12-24T02:04:57.610Z,8.07
2018-12-24T02:05:33.466Z,8.05
2018-12-24T02:06:09.310Z,8.05
2018-12-24T02:06:45.158Z,8.05
2018-12-24T02:07:21.515Z,8.04
2018-12-24T02:07:57.399Z,8.03
2018-12-24T02:08:33.240Z,8.03
2018-12-24T02:09:09.159Z,8.00
2018-12-24T02:09:45.306Z,8.04
2018-12-24T02:10:21.379Z,8.02
2018-12-24T02:10:57.337Z,8.01
2018-12-24T02:11:33.439Z,8.00
2018-12-24T02:12:09.572Z,8.03
2018-12-24T02:12:45.428Z,8.03
2018-12-24T02:13:21.710Z,7.96
2018-12-24T02:13:58.053Z,8.02
2018-12-24T02:14:33.891Z,8.02
2018-12-24T02:15:10.055Z,7.98
2018-12-24T02:15:45.996Z,7.98
2018-12-24T02:16:21.898Z,8.00
2018-12-24T02:16:58.011Z,7.94
2018-12-24T02:17:33.842Z,8.01
2018-12-24T02:18:09.701Z,7.96
2018-12-24T02:18:45.824Z,7.92
2018-12-24T02:19:21.754Z,7.92
2018-12-24T02:19:57.629Z,7.98
2018-12-24T02:20:33.559Z,8.01
2018-12-24T02:21:09.401Z,8.01
2018-12-24T02:21:45.505Z,8.01
2018-12-24T02:22:21.436Z,8.05
2018-12-24T02:22:57.318Z,8.02
2018-12-24T02:23:33.167Z,8.02
2018-12-24T02:24:09.030Z,8.03
2018-12-24T02:24:44.872Z,8.04
2018-12-24T02:25:20.791Z,7.94
2018-12-24T02:25:56.661Z,7.96
2018-12-24T02:26:32.521Z,7.94
2018-12-24T02:27:08.374Z,7.82
2018-12-24T02:27:44.256Z,7.82
2018-12-24T02:28:20.159Z,7.88
2018-12-24T02:28:56.517Z,7.81
2018-12-24T02:29:32.383Z,7.76
2018-12-24T02:30:08.235Z,7.76
2018-12-24T02:30:44.088Z,7.76
2018-12-24T02:31:20.012Z,7.76
2018-12-24T02:31:55.977Z,7.67
2018-12-24T02:32:31.854Z,7.67
2018-12-24T02:33:07.706Z,7.64
2018-12-24T02:33:43.646Z,7.62
2018-12-24T02:34:19.584Z,7.63
2018-12-24T02:34:55.792Z,7.62
2018-12-24T02:35:31.617Z,7.57
2018-12-24T02:36:07.462Z,7.50
2018-12-24T02:36:43.591Z,7.44
2018-12-24T02:37:19.680Z,7.42
2018-12-24T02:37:55.567Z,7.42
2018-12-24T02:38:31.404Z,7.42
2018-12-24T02:39:08.136Z,7.37
2018-12-24T02:39:43.989Z,7.39
2018-12-24T02:40:20.068Z,7.36
2018-12-24T02:40:55.975Z,7.35
2018-12-24T02:41:31.816Z,7.35
2018-12-24T02:42:07.711Z,7.30
2018-12-24T02:42:52.081Z,7.26
2018-12-24T02:43:21.250Z,7.25
2018-12-24T02:43:57.205Z,7.28
2018-12-24T02:44:33.337Z,7.27
2018-12-24T02:45:09.183Z,7.23
2018-12-24T02:45:45.026Z,7.20
2018-12-24T02:46:20.901Z,7.15
2018-12-24T02:46:56.777Z,7.16
2018-12-24T02:47:32.618Z,7.12
2018-12-24T02:48:08.559Z,7.14
2018-12-24T02:48:44.492Z,7.15
2018-12-24T02:49:20.678Z,7.19
2018-12-24T02:49:56.618Z,7.14
2018-12-24T02:50:32.480Z,7.15
2018-12-24T02:51:08.327Z,7.23
2018-12-24T02:51:44.271Z,7.14
2018-12-24T02:52:20.112Z,7.11
2018-12-24T02:52:56.439Z,7.13
2018-12-24T02:53:32.708Z,7.07
2018-12-24T02:54:09.142Z,7.07
2018-12-24T02:54:45.278Z,7.09
2018-12-24T02:55:21.105Z,7.09
2018-12-24T02:55:57.072Z,7.08
2018-12-24T02:56:32.970Z,7.06
2018-12-24T02:57:08.805Z,7.06
2018-12-24T02:57:44.641Z,7.04
2018-12-24T02:58:20.486Z,7.03
2018-12-24T02:58:56.416Z,7.02
2018-12-24T02:59:32.362Z,7.03
2018-12-24T03:00:08.219Z,7.03
2018-12-24T03:00:44.060Z,7.04
2018-12-24T03:01:20.634Z,6.99
2018-12-24T03:01:56.642Z,6.95
2018-12-24T03:02:32.779Z,7.01
2018-12-24T03:03:08.646Z,7.01
2018-12-24T03:03:45.068Z,6.99
2018-12-24T03:04:20.918Z,6.93
2018-12-24T03:04:56.840Z,6.98
2018-12-24T03:05:33.134Z,6.94
2018-12-24T03:06:08.964Z,6.92
2018-12-24T03:06:44.834Z,6.90
2018-12-24T03:07:20.681Z,6.94
2018-12-24T03:07:56.872Z,6.91
2018-12-24T03:08:32.735Z,6.89
2018-12-24T03:09:08.602Z,6.81
2018-12-24T03:09:44.503Z,6.85
2018-12-24T03:10:20.625Z,6.82
2018-12-24T03:10:56.602Z,6.80
2018-12-24T03:11:32.468Z,6.81
2018-12-24T03:12:08.320Z,6.80
2018-12-24T03:12:44.160Z,6.74
2018-12-24T03:13:20.106Z,6.71
2018-12-24T03:13:55.999Z,6.72
2018-12-24T03:14:31.870Z,6.70
2018-12-24T03:15:07.739Z,6.67
2018-12-24T03:15:43.844Z,6.66
2018-12-24T03:16:19.686Z,6.68
2018-12-24T03:16:55.529Z,6.70
2018-12-24T03:17:31.391Z,6.70
2018-12-24T03:18:07.259Z,6.70
2018-12-24T03:18:43.201Z,6.68
2018-12-24T03:19:19.123Z,6.68
2018-12-24T03:19:55.016Z,6.70
2018-12-24T03:20:30.878Z,6.75
2018-12-24T03:21:06.901Z,6.74
2018-12-24T03:21:42.745Z,6.71
2018-12-24T03:22:18.605Z,6.74
2018-12-24T03:22:54.736Z,6.70
2018-12-24T03:23:30.909Z,6.75
2018-12-24T03:24:06.765Z,6.77
2018-12-24T03:24:42.718Z,6.77
2018-12-24T03:25:18.819Z,6.76
2018-12-24T03:25:54.953Z,6.73
2018-12-24T03:26:30.851Z,6.74
2018-12-24T03:27:06.797Z,6.75
2018-12-24T03:27:42.935Z,6.78
2018-12-24T03:28:18.773Z,6.78
2018-12-24T03:28:54.891Z,6.71
2018-12-24T03:29:30.768Z,6.70
2018-12-24T03:30:06.677Z,6.76
2018-12-24T03:30:42.520Z,6.73
2018-12-24T03:31:18.374Z,6.65
2018-12-24T03:31:54.242Z,6.64
2018-12-24T03:32:30.142Z,6.62
2018-12-24T03:33:06.002Z,6.65
2018-12-24T03:33:41.884Z,6.65
2018-12-24T03:34:17.720Z,6.62
2018-12-24T03:34:53.600Z,6.65
2018-12-24T03:35:29.803Z,6.60
2018-12-24T03:36:06.281Z,6.55
2018-12-24T03:36:42.118Z,6.53
2018-12-24T03:37:17.987Z,6.53
2018-12-24T03:37:54.115Z,6.51
2018-12-24T03:38:30.307Z,6.49
2018-12-24T03:39:07.830Z,6.48
2018-12-24T03:39:43.692Z,6.49
2018-12-24T03:40:19.853Z,6.48
2018-12-24T03:40:56.288Z,6.48
2018-12-24T03:41:32.302Z,6.52
2018-12-24T03:42:08.219Z,6.48
2018-12-24T03:42:44.068Z,6.42
2018-12-24T03:43:19.901Z,6.39
2018-12-24T03:43:55.758Z,6.39
2018-12-24T03:44:31.725Z,6.36
2018-12-24T03:45:07.956Z,6.38
2018-12-24T03:45:43.840Z,6.42
2018-12-24T03:46:19.696Z,6.37
2018-12-24T03:46:55.567Z,6.42
2018-12-24T03:47:31.559Z,6.42
2018-12-24T03:48:07.445Z,6.45
2018-12-24T03:48:43.543Z,6.41
2018-12-24T03:49:19.732Z,6.37
2018-12-24T03:49:55.866Z,6.44
2018-12-24T03:50:32.113Z,6.44
2018-12-24T03:51:08.052Z,6.41
2018-12-24T03:51:43.929Z,6.42
2018-12-24T03:52:20.052Z,6.39
2018-12-24T03:52:56.055Z,6.37
2018-12-24T03:53:32.274Z,6.38
2018-12-24T03:54:08.504Z,6.37
2018-12-24T03:54:44.604Z,6.38
2018-12-24T03:55:20.755Z,6.36
2018-12-24T03:55:56.734Z,6.35
2018-12-24T03:56:32.620Z,6.30
2018-12-24T03:57:08.578Z,6.25
2018-12-24T03:57:44.422Z,6.33
2018-12-24T03:58:20.630Z,6.33
2018-12-24T03:58:56.722Z,6.32
2018-12-24T03:59:32.851Z,6.33
2018-12-24T04:00:09.118Z,6.32
2018-12-24T04:00:45.003Z,6.35
2018-12-24T04:01:21.100Z,6.39
2018-12-24T04:01:56.986Z,6.45
2018-12-24T04:02:33.006Z,6.45
2018-12-24T04:03:08.868Z,6.37
2018-12-24T04:03:44.745Z,6.35
2018-12-24T04:04:20.879Z,6.35
2018-12-24T04:04:57.060Z,6.31
2018-12-24T04:05:33.385Z,6.33
2018-12-24T04:06:09.211Z,6.34
2018-12-24T04:06:45.464Z,6.38
2018-12-24T04:07:21.377Z,6.36
2018-12-24T04:07:57.508Z,6.33
2018-12-24T04:08:33.647Z,6.31
2018-12-24T04:09:09.826Z,6.29
2018-12-24T04:09:46.293Z,6.24
2018-12-24T04:10:22.182Z,6.24
2018-12-24T04:10:58.354Z,6.21
2018-12-24T04:11:34.489Z,6.18
2018-12-24T04:12:10.583Z,6.18
2018-12-24T04:12:46.423Z,6.15
2018-12-24T04:13:22.971Z,6.18
2018-12-24T04:13:59.021Z,6.21
2018-12-24T04:14:35.029Z,6.17
2018-12-24T04:15:10.969Z,6.17
2018-12-24T04:15:46.957Z,6.13
2018-12-24T04:16:23.145Z,6.12
2018-12-24T04:16:59.062Z,6.14
2018-12-24T04:17:34.961Z,6.11
2018-12-24T04:18:10.805Z,6.11
2018-12-24T04:18:47.063Z,6.11
2018-12-24T04:19:22.984Z,6.10
2018-12-24T04:19:58.890Z,6.11
2018-12-24T04:20:34.802Z,6.08
2018-12-24T04:21:10.928Z,6.02
2018-12-24T04:21:46.794Z,6.05
2018-12-24T04:22:22.646Z,6.04
2018-12-24T04:22:58.919Z,6.01
2018-12-24T04:23:34.837Z,6.01
2018-12-24T04:24:10.705Z,6.04
2018-12-24T04:24:46.529Z,6.03
2018-12-24T04:25:22.383Z,6.01
2018-12-24T04:25:58.920Z,6.00
2018-12-24T04:26:34.824Z,5.96
2018-12-24T04:27:11.183Z,5.96
2018-12-24T04:27:47.303Z,5.92
2018-12-24T04:28:23.413Z,5.92
2018-12-24T04:28:59.631Z,5.91
2018-12-24T04:29:35.520Z,5.92
2018-12-24T04:30:11.366Z,5.92
2018-12-24T04:30:47.265Z,5.93
2018-12-24T04:31:23.167Z,5.93
2018-12-24T04:31:59.090Z,5.90
2018-12-24T04:32:35.033Z,5.94
2018-12-24T04:33:11.216Z,5.92
2018-12-24T04:33:47.056Z,5.92
2018-12-24T04:34:22.895Z,5.91
2018-12-24T04:34:58.797Z,5.95
2018-12-24T04:35:35.094Z,5.92
2018-12-24T04:36:10.931Z,5.88
2018-12-24T04:36:47.086Z,5.86
2018-12-24T04:37:22.897Z,5.80
2018-12-24T04:37:58.791Z,5.92
2018-12-24T04:38:34.662Z,5.95
2018-12-24T04:39:10.503Z,5.91
2018-12-24T04:39:46.372Z,5.92
2018-12-24T04:40:22.207Z,5.84
2018-12-24T04:40:58.119Z,5.82
2018-12-24T04:41:34.032Z,5.81
2018-12-24T04:42:09.868Z,5.77
2018-12-24T04:42:45.705Z,5.76
2018-12-24T04:43:21.573Z,5.74
2018-12-24T04:43:59.113Z,5.74
2018-12-24T04:44:35.248Z,5.77
2018-12-24T04:45:11.191Z,5.77
2018-12-24T04:45:47.054Z,5.73
2018-12-24T04:46:22.919Z,5.76
2018-12-24T04:46:59.161Z,5.72
2018-12-24T04:47:35.029Z,5.71
2018-12-24T04:48:11.143Z,5.73
2018-12-24T04:48:47.328Z,5.73
2018-12-24T04:49:23.475Z,5.75
2018-12-24T04:49:59.652Z,5.72
2018-12-24T04:50:35.523Z,5.71
2018-12-24T04:51:11.381Z,5.72
2018-12-24T04:51:47.223Z,5.74
2018-12-24T04:52:23.077Z,5.70
2018-12-24T04:52:59.073Z,5.74
2018-12-24T04:53:34.982Z,5.72
2018-12-24T04:54:10.817Z,5.79
2018-12-24T04:54:46.915Z,5.83
2018-12-24T04:55:22.825Z,5.80
2018-12-24T04:55:58.848Z,5.80
2018-12-24T04:56:34.740Z,5.85
2018-12-24T04:57:10.561Z,5.83
2018-12-24T04:57:46.730Z,5.85
2018-12-24T04:58:22.567Z,5.86
2018-12-24T04:58:58.487Z,5.91
2018-12-24T04:59:34.398Z,5.92
2018-12-24T05:00:10.239Z,5.93
2018-12-24T05:00:46.080Z,5.90
2018-12-24T05:01:22.066Z,5.95
2018-12-24T05:01:58.367Z,5.96
2018-12-24T05:02:34.340Z,5.93
2018-12-24T05:03:10.168Z,5.93
2018-12-24T05:03:46.024Z,5.94
2018-12-24T05:04:21.862Z,5.92
2018-12-24T05:04:57.784Z,5.95
2018-12-24T05:05:34.243Z,5.94
2018-12-24T05:06:10.111Z,5.94
2018-12-24T05:06:45.948Z,5.93
2018-12-24T05:07:22.031Z,5.99
2018-12-24T05:07:57.938Z,5.95
2018-12-24T05:08:33.899Z,6.01
2018-12-24T05:09:10.015Z,6.02
2018-12-24T05:09:46.104Z,6.03
2018-12-24T05:10:22.264Z,6.03
2018-12-24T05:10:58.156Z,6.03
2018-12-24T05:11:34.326Z,6.03
2018-12-24T05:12:10.167Z,6.06
2018-12-24T05:12:46.041Z,6.06
2018-12-24T05:13:21.889Z,6.06
2018-12-24T05:13:58.048Z,6.11
2018-12-24T05:14:34.419Z,6.08
2018-12-24T05:15:10.287Z,6.07
2018-12-24T05:15:46.135Z,6.08
2018-12-24T05:16:22.112Z,6.12
2018-12-24T05:16:58.007Z,6.08
2018-12-24T05:17:33.927Z,6.06
2018-12-24T05:18:09.791Z,6.06
2018-12-24T05:18:45.615Z,6.05
2018-12-24T05:19:21.557Z,6.00
2018-12-24T05:19:57.858Z,6.01
2018-12-24T05:20:34.189Z,6.02
2018-12-24T05:21:10.067Z,5.97
2018-12-24T05:21:45.942Z,5.96
2018-12-24T05:22:21.784Z,5.94
2018-12-24T05:22:57.694Z,5.95
2018-12-24T05:23:33.567Z,5.95
2018-12-24T05:24:09.423Z,5.99
2018-12-24T05:24:45.260Z,5.99
2018-12-24T05:25:21.090Z,6.00
2018-12-24T05:25:57.370Z,5.96
2018-12-24T05:26:33.279Z,5.99
2018-12-24T05:27:09.466Z,5.95
2018-12-24T05:27:45.316Z,5.99
2018-12-24T05:28:21.153Z,6.00
2018-12-24T05:28:57.350Z,6.04
2018-12-24T05:29:33.321Z,6.06
2018-12-24T05:30:09.174Z,6.08
2018-12-24T05:30:45.011Z,6.08
2018-12-24T05:31:20.906Z,6.06
2018-12-24T05:31:56.932Z,6.07
2018-12-24T05:32:32.907Z,6.06
2018-12-24T05:33:09.332Z,6.07
2018-12-24T05:33:45.165Z,6.07
2018-12-24T05:34:21.030Z,6.09
2018-12-24T05:34:57.317Z,6.12
2018-12-24T05:35:33.307Z,6.05
2018-12-24T05:36:09.175Z,6.07
2018-12-24T05:36:45.051Z,6.06
2018-12-24T05:37:21.237Z,6.06
2018-12-24T05:37:57.372Z,6.11
2018-12-24T05:38:33.265Z,6.09
2018-12-24T05:39:09.112Z,6.09
2018-12-24T05:39:44.968Z,6.12
2018-12-24T05:40:20.804Z,6.11
2018-12-24T05:40:56.883Z,6.08
2018-12-24T05:41:32.860Z,6.16
2018-12-24T05:42:09.015Z,6.16
2018-12-24T05:42:44.956Z,6.13
2018-12-24T05:43:21.397Z,6.13
2018-12-24T05:43:57.323Z,6.13
2018-12-24T05:44:33.212Z,6.12
2018-12-24T05:45:09.066Z,6.14
2018-12-24T05:45:45.009Z,6.15
2018-12-24T05:46:20.973Z,6.16
2018-12-24T05:46:56.936Z,6.22
2018-12-24T05:47:33.069Z,6.22
2018-12-24T05:48:08.912Z,6.26
2018-12-24T05:48:45.051Z,6.28
2018-12-24T05:49:20.892Z,6.24
2018-12-24T05:49:57.124Z,6.24
2018-12-24T05:50:33.397Z,6.22
2018-12-24T05:51:09.260Z,6.20
2018-12-24T05:51:45.116Z,6.22
2018-12-24T05:52:21.074Z,6.23
2018-12-24T05:52:57.047Z,6.26
2018-12-24T05:53:33.357Z,6.18
2018-12-24T05:54:09.205Z,6.22
2018-12-24T05:54:45.028Z,6.19
2018-12-24T05:55:20.905Z,6.16
2018-12-24T05:55:56.857Z,6.20
2018-12-24T05:56:32.898Z,6.21
2018-12-24T05:57:09.022Z,6.25
2018-12-24T05:57:44.861Z,6.22
2018-12-24T05:58:21.063Z,6.16
2018-12-24T05:58:57.136Z,6.23
2018-12-24T05:59:33.050Z,6.18
2018-12-24T06:00:08.918Z,6.19
2018-12-24T06:00:44.951Z,6.20
2018-12-24T06:01:20.817Z,6.18
2018-12-24T06:01:57.565Z,6.14
2018-12-24T06:02:33.573Z,6.08
2018-12-24T06:03:09.569Z,6.12
2018-12-24T06:03:45.405Z,6.21
2018-12-24T06:04:22.275Z,6.15
2018-12-24T06:04:58.394Z,6.13
2018-12-24T06:05:34.374Z,6.08
2018-12-24T06:06:10.540Z,6.07
2018-12-24T06:06:46.677Z,6.01
2018-12-24T06:07:22.538Z,6.03
2018-12-24T06:07:58.819Z,6.00
2018-12-24T06:08:34.736Z,6.00
2018-12-24T06:09:10.624Z,5.97
2018-12-24T06:09:46.800Z,6.00
2018-12-24T06:10:22.935Z,5.96
2018-12-24T06:10:59.181Z,5.93
2018-12-24T06:11:35.103Z,5.90
2018-12-24T06:12:11.249Z,5.96
2018-12-24T06:12:47.077Z,5.97
2018-12-24T06:13:22.914Z,5.93
2018-12-24T06:13:58.964Z,5.91
2018-12-24T06:14:35.191Z,5.89
2018-12-24T06:15:11.134Z,5.88
2018-12-24T06:15:46.972Z,5.85
2018-12-24T06:16:22.828Z,5.83
2018-12-24T06:16:58.977Z,5.81
2018-12-24T06:17:34.848Z,5.85
2018-12-24T06:18:11.044Z,5.84
2018-12-24T06:18:46.890Z,5.83
2018-12-24T06:19:23.137Z,5.87
2018-12-24T06:19:59.383Z,5.90
2018-12-24T06:20:37.770Z,5.92
2018-12-24T06:21:12.948Z,5.94
2018-12-24T06:21:48.790Z,6.02
2018-12-24T06:22:24.669Z,6.04
2018-12-24T06:23:00.583Z,6.07
2018-12-24T06:23:36.450Z,6.08
2018-12-24T06:24:12.310Z,6.08
2018-12-24T06:24:48.149Z,6.10
2018-12-24T06:25:24.340Z,6.10
2018-12-24T06:26:00.477Z,6.13
2018-12-24T06:26:36.314Z,6.12
2018-12-24T06:27:12.457Z,6.11
2018-12-24T06:27:48.322Z,6.09
2018-12-24T06:28:24.175Z,6.08
2018-12-24T06:29:00.380Z,6.11
2018-12-24T06:29:36.230Z,6.11
2018-12-24T06:30:12.079Z,6.11
2018-12-24T06:30:48.165Z,6.14
2018-12-24T06:31:24.089Z,6.14
2018-12-24T06:32:00.407Z,6.12
2018-12-24T06:32:36.334Z,6.12
2018-12-24T06:33:12.831Z,6.17
2018-12-24T06:33:48.996Z,6.12
2018-12-24T06:34:24.856Z,6.11
2018-12-24T06:35:00.815Z,6.10
2018-12-24T06:35:36.955Z,6.07
2018-12-24T06:36:12.819Z,6.08
2018-12-24T06:36:48.762Z,6.05
2018-12-24T06:37:24.773Z,6.05
2018-12-24T06:38:01.077Z,6.02
2018-12-24T06:38:36.994Z,6.07
2018-12-24T06:39:12.827Z,6.12
2018-12-24T06:39:48.663Z,6.15
2018-12-24T06:40:24.534Z,6.14
2018-12-24T06:41:00.411Z,6.17
2018-12-24T06:41:36.658Z,6.12
2018-12-24T06:42:12.508Z,6.07
2018-12-24T06:42:48.399Z,6.06
2018-12-24T06:43:24.235Z,6.04
2018-12-24T06:44:06.734Z,6.04
2018-12-24T06:44:37.822Z,6.01
2018-12-24T06:45:13.661Z,6.02
2018-12-24T06:45:49.623Z,6.01
2018-12-24T06:46:25.472Z,5.99
2018-12-24T06:47:01.773Z,5.98
2018-12-24T06:47:38.246Z,6.00
2018-12-24T06:48:14.092Z,6.05
2018-12-24T06:48:49.927Z,6.07
2018-12-24T06:49:26.165Z,6.09
2018-12-24T06:50:02.442Z,6.14
2018-12-24T06:50:38.310Z,6.17
2018-12-24T06:51:14.415Z,6.17
2018-12-24T06:51:50.279Z,6.22
2018-12-24T06:52:26.170Z,6.26
2018-12-24T06:53:02.072Z,6.23
2018-12-24T06:53:38.308Z,6.23
2018-12-24T06:54:14.153Z,6.35
2018-12-24T06:54:50.096Z,6.35
2018-12-24T06:55:25.936Z,6.30
2018-12-24T06:56:01.890Z,6.31
2018-12-24T06:56:37.785Z,6.28
2018-12-24T06:57:13.620Z,6.26
2018-12-24T06:57:49.538Z,6.24
2018-12-24T06:58:25.662Z,6.23
2018-12-24T06:59:01.656Z,6.21
2018-12-24T06:59:37.696Z,6.19
2018-12-24T07:00:13.514Z,6.23
2018-12-24T07:00:49.388Z,6.26
2018-12-24T07:01:25.249Z,6.21
2018-12-24T07:02:01.183Z,6.17
2018-12-24T07:02:37.332Z,6.16
2018-12-24T07:03:13.184Z,6.18
2018-12-24T07:03:49.652Z,6.12
2018-12-24T07:04:25.646Z,6.27
2018-12-24T07:05:01.844Z,6.24
2018-12-24T07:05:37.768Z,6.14
2018-12-24T07:06:13.661Z,6.07
2018-12-24T07:06:49.516Z,5.99
2018-12-24T07:07:25.496Z,5.99
2018-12-24T07:08:01.429Z,6.05
2018-12-24T07:08:37.396Z,6.02
2018-12-24T07:09:13.314Z,6.04
2018-12-24T07:09:49.235Z,6.02
2018-12-24T07:10:25.155Z,6.07
2018-12-24T07:11:01.071Z,6.19
2018-12-24T07:11:37.118Z,6.11
2018-12-24T07:12:13.226Z,6.12
2018-12-24T07:12:49.149Z,6.06
2018-12-24T07:13:25.464Z,6.06
2018-12-24T07:14:01.398Z,6.04
2018-12-24T07:14:37.577Z,6.06
2018-12-24T07:15:13.406Z,6.06
2018-12-24T07:15:49.256Z,6.07
2018-12-24T07:16:25.127Z,6.05
2018-12-24T07:17:01.141Z,6.04
2018-12-24T07:17:37.052Z,6.04
2018-12-24T07:18:12.940Z,6.07
2018-12-24T07:18:48.885Z,6.24
2018-12-24T07:19:24.759Z,6.15
2018-12-24T07:20:01.129Z,6.18
2018-12-24T07:20:37.325Z,6.15
2018-12-24T07:21:13.523Z,6.08
2018-12-24T07:21:49.364Z,6.16
2018-12-24T07:22:25.232Z,6.13
2018-12-24T07:23:01.635Z,6.08
2018-12-24T07:23:37.477Z,6.08
2018-12-24T07:24:13.439Z,6.04
2018-12-24T07:24:49.309Z,6.04
2018-12-24T07:25:25.254Z,6.03
2018-12-24T07:26:01.248Z,6.02
2018-12-24T07:26:37.174Z,6.07
2018-12-24T07:27:13.028Z,6.06
2018-12-24T07:27:48.991Z,6.06
2018-12-24T07:28:24.895Z,6.05
2018-12-24T07:29:00.845Z,6.02
2018-12-24T07:29:36.796Z,6.04
2018-12-24T07:30:12.606Z,6.02
2018-12-24T07:30:48.453Z,6.09
2018-12-24T07:31:24.543Z,6.05
2018-12-24T07:32:00.475Z,6.03
2018-12-24T07:32:36.370Z,6.02
2018-12-24T07:33:12.226Z,6.06
2018-12-24T07:33:48.097Z,6.03
2018-12-24T07:34:32.188Z,6.00
2018-12-24T07:35:01.981Z,6.05
2018-12-24T07:35:37.907Z,6.07
2018-12-24T07:36:13.746Z,6.03
2018-12-24T07:36:49.650Z,6.07
2018-12-24T07:37:25.816Z,6.02
2018-12-24T07:38:03.038Z,6.02
2018-12-24T07:38:39.046Z,6.04
2018-12-24T07:39:14.966Z,6.09
2018-12-24T07:39:50.836Z,6.10
2018-12-24T07:40:26.953Z,6.09
2018-12-24T07:41:02.895Z,6.07
2018-12-24T07:41:38.806Z,6.07
2018-12-24T07:42:14.898Z,6.09
2018-12-24T07:42:50.760Z,6.08
2018-12-24T07:43:26.612Z,6.09
2018-12-24T07:44:02.554Z,6.09
2018-12-24T07:44:38.418Z,6.11
2018-12-24T07:45:14.296Z,6.12
2018-12-24T07:45:50.145Z,6.16
2018-12-24T07:46:26.033Z,6.22
2018-12-24T07:47:02.354Z,6.22
2018-12-24T07:47:38.258Z,6.18
2018-12-24T07:48:14.177Z,6.18
2018-12-24T07:48:50.075Z,6.16
2018-12-24T07:49:26.116Z,6.16
2018-12-24T07:50:02.319Z,6.16
2018-12-24T07:50:38.190Z,6.16
2018-12-24T07:51:14.024Z,6.16
2018-12-24T07:51:49.888Z,6.18
2018-12-24T07:52:26.059Z,6.20
2018-12-24T07:53:01.986Z,6.22
2018-12-24T07:53:38.112Z,6.27
2018-12-24T07:54:14.059Z,6.29
2018-12-24T07:54:49.903Z,6.36
2018-12-24T07:55:26.087Z,6.34
2018-12-24T07:56:02.228Z,6.34
2018-12-24T07:56:38.423Z,6.32
2018-12-24T07:57:14.286Z,6.29
2018-12-24T07:57:50.124Z,6.48
2018-12-24T07:58:26.278Z,6.48